sensor_id;sensor_type;location;lat;lon;timestamp;P1;durP1;ratioP1;P2;durP2;ratioP2
66970;SDS011;53901;51.466;-2.588;2023-08-01T00:00:30;16.08;;;5.93;;
66970;SDS011;53901;51.466;-2.588;2023-08-01T00:02:56;21.10;;;5.90;;
66970;SDS011;53901;51.466;-2.588;2023-08-01T00:05:21;21.83;;;5.68;;
66970;SDS011;53901;51.466;-2.588;2023-08-01T00:07:47;24.30;;;5.80;;
66970;SDS011;53901;51.466;-2.588;2023-08-01T00:10:12;19.02;;;5.82;;
66970;SDS011;53901;51.466;-2.588;2023-08-01T00:12:38;24.55;;;5.70;;
66970;SDS011;53901;51.466;-2.588;2023-08-01T00:15:03;19.90;;;5.20;;
66970;SDS011;53901;51.466;-2.588;2023-08-01T00:17:29;23.08;;;5.38;;
66970;SDS011;53901;51.466;-2.588;2023-08-01T00:19:54;15.57;;;4.53;;
66970;SDS011;53901;51.466;-2.588;2023-08-01T00:22:20;18.77;;;5.18;;
66970;SDS011;53901;51.466;-2.588;2023-08-01T00:24:45;20.67;;;4.50;;
66970;SDS011;53901;51.466;-2.588;2023-08-01T00:27:12;21.33;;;4.68;;
66970;SDS011;53901;51.466;-2.588;2023-08-01T00:29:38;17.00;;;4.20;;
66970;SDS011;53901;51.466;-2.588;2023-08-01T00:32:04;19.95;;;4.88;;
66970;SDS011;53901;51.466;-2.588;2023-08-01T00:34:29;23.35;;;4.30;;
66970;SDS011;53901;51.466;-2.588;2023-08-01T00:36:56;23.25;;;5.03;;
66970;SDS011;53901;51.466;-2.588;2023-08-01T00:39:22;20.15;;;4.28;;
66970;SDS011;53901;51.466;-2.588;2023-08-01T00:41:47;17.15;;;4.03;;
66970;SDS011;53901;51.466;-2.588;2023-08-01T00:44:12;15.77;;;3.75;;
66970;SDS011;53901;51.466;-2.588;2023-08-01T00:46:38;16.38;;;4.50;;
66970;SDS011;53901;51.466;-2.588;2023-08-01T00:49:03;15.40;;;4.55;;
66970;SDS011;53901;51.466;-2.588;2023-08-01T00:51:29;19.52;;;4.15;;
66970;SDS011;53901;51.466;-2.588;2023-08-01T00:53:55;16.48;;;4.00;;
66970;SDS011;53901;51.466;-2.588;2023-08-01T00:56:20;14.00;;;3.50;;
66970;SDS011;53901;51.466;-2.588;2023-08-01T00:58:46;12.20;;;3.33;;
66970;SDS011;53901;51.466;-2.588;2023-08-01T01:01:11;17.17;;;3.97;;
66970;SDS011;53901;51.466;-2.588;2023-08-01T01:03:36;13.00;;;3.83;;
66970;SDS011;53901;51.466;-2.588;2023-08-01T01:08:50;10.50;;;3.05;;
66970;SDS011;53901;51.466;-2.588;2023-08-01T01:11:15;18.00;;;3.72;;
66970;SDS011;53901;51.466;-2.588;2023-08-01T01:13:41;14.65;;;3.97;;
66970;SDS011;53901;51.466;-2.588;2023-08-01T01:16:06;14.52;;;4.18;;
66970;SDS011;53901;51.466;-2.588;2023-08-01T01:18:31;10.77;;;4.38;;
66970;SDS011;53901;51.466;-2.588;2023-08-01T01:20:57;15.43;;;3.75;;
66970;SDS011;53901;51.466;-2.588;2023-08-01T01:23:22;15.30;;;3.78;;
66970;SDS011;53901;51.466;-2.588;2023-08-01T01:25:49;13.20;;;3.53;;
66970;SDS011;53901;51.466;-2.588;2023-08-01T01:28:16;20.30;;;3.67;;
66970;SDS011;53901;51.466;-2.588;2023-08-01T01:30:42;14.95;;;3.40;;
66970;SDS011;53901;51.466;-2.588;2023-08-01T01:33:09;13.82;;;3.45;;
66970;SDS011;53901;51.466;-2.588;2023-08-01T01:35:34;11.77;;;3.13;;
66970;SDS011;53901;51.466;-2.588;2023-08-01T01:38:00;15.27;;;3.80;;
66970;SDS011;53901;51.466;-2.588;2023-08-01T01:40:29;12.38;;;3.47;;
66970;SDS011;53901;51.466;-2.588;2023-08-01T01:42:55;11.18;;;3.28;;
66970;SDS011;53901;51.466;-2.588;2023-08-01T01:45:21;12.25;;;3.10;;
66970;SDS011;53901;51.466;-2.588;2023-08-01T01:47:46;13.98;;;3.13;;
66970;SDS011;53901;51.466;-2.588;2023-08-01T01:50:11;10.93;;;2.65;;
66970;SDS011;53901;51.466;-2.588;2023-08-01T01:52:37;13.07;;;2.83;;
66970;SDS011;53901;51.466;-2.588;2023-08-01T01:55:02;9.30;;;2.42;;
66970;SDS011;53901;51.466;-2.588;2023-08-01T01:57:28;8.68;;;2.15;;
66970;SDS011;53901;51.466;-2.588;2023-08-01T01:59:53;8.40;;;2.30;;
66970;SDS011;53901;51.466;-2.588;2023-08-01T02:02:18;8.23;;;2.17;;
66970;SDS011;53901;51.466;-2.588;2023-08-01T02:04:45;12.52;;;2.80;;
66970;SDS011;53901;51.466;-2.588;2023-08-01T02:07:11;9.95;;;2.13;;
66970;SDS011;53901;51.466;-2.588;2023-08-01T02:09:39;9.40;;;2.45;;
66970;SDS011;53901;51.466;-2.588;2023-08-01T02:12:04;12.82;;;2.50;;
66970;SDS011;53901;51.466;-2.588;2023-08-01T02:14:30;5.95;;;1.80;;
66970;SDS011;53901;51.466;-2.588;2023-08-01T02:16:55;9.65;;;2.40;;
66970;SDS011;53901;51.466;-2.588;2023-08-01T02:19:21;9.38;;;2.72;;
66970;SDS011;53901;51.466;-2.588;2023-08-01T02:21:46;9.40;;;2.28;;
66970;SDS011;53901;51.466;-2.588;2023-08-01T02:24:11;8.75;;;2.65;;
66970;SDS011;53901;51.466;-2.588;2023-08-01T02:26:37;13.30;;;2.42;;
66970;SDS011;53901;51.466;-2.588;2023-08-01T02:29:02;8.02;;;2.10;;
66970;SDS011;53901;51.466;-2.588;2023-08-01T02:31:27;7.75;;;2.10;;
66970;SDS011;53901;51.466;-2.588;2023-08-01T02:33:53;8.75;;;2.15;;
66970;SDS011;53901;51.466;-2.588;2023-08-01T02:36:18;12.77;;;2.70;;
66970;SDS011;53901;51.466;-2.588;2023-08-01T02:38:44;7.65;;;2.38;;
66970;SDS011;53901;51.466;-2.588;2023-08-01T02:41:09;10.43;;;2.47;;
66970;SDS011;53901;51.466;-2.588;2023-08-01T02:43:34;11.45;;;2.13;;
66970;SDS011;53901;51.466;-2.588;2023-08-01T02:46:01;9.73;;;2.08;;
66970;SDS011;53901;51.466;-2.588;2023-08-01T02:48:27;11.25;;;2.53;;
66970;SDS011;53901;51.466;-2.588;2023-08-01T02:50:52;11.25;;;2.45;;
66970;SDS011;53901;51.466;-2.588;2023-08-01T02:53:17;7.68;;;2.40;;
66970;SDS011;53901;51.466;-2.588;2023-08-01T02:55:43;12.65;;;2.60;;
66970;SDS011;53901;51.466;-2.588;2023-08-01T02:58:11;11.85;;;2.38;;
66970;SDS011;53901;51.466;-2.588;2023-08-01T03:00:39;9.57;;;2.58;;
66970;SDS011;53901;51.466;-2.588;2023-08-01T03:03:05;11.02;;;2.65;;
66970;SDS011;53901;51.466;-2.588;2023-08-01T03:05:31;8.95;;;2.97;;
66970;SDS011;53901;51.466;-2.588;2023-08-01T03:07:56;9.48;;;2.65;;
66970;SDS011;53901;51.466;-2.588;2023-08-01T03:10:22;8.52;;;3.25;;
66970;SDS011;53901;51.466;-2.588;2023-08-01T03:12:47;11.32;;;3.28;;
66970;SDS011;53901;51.466;-2.588;2023-08-01T03:15:12;11.50;;;3.33;;
66970;SDS011;53901;51.466;-2.588;2023-08-01T03:17:38;10.68;;;3.00;;
66970;SDS011;53901;51.466;-2.588;2023-08-01T03:20:04;11.95;;;2.85;;
66970;SDS011;53901;51.466;-2.588;2023-08-01T03:22:30;16.40;;;2.72;;
66970;SDS011;53901;51.466;-2.588;2023-08-01T03:24:55;11.80;;;3.13;;
66970;SDS011;53901;51.466;-2.588;2023-08-01T03:27:21;10.13;;;2.75;;
66970;SDS011;53901;51.466;-2.588;2023-08-01T03:29:46;9.88;;;2.50;;
66970;SDS011;53901;51.466;-2.588;2023-08-01T03:32:12;8.38;;;2.15;;
66970;SDS011;53901;51.466;-2.588;2023-08-01T03:34:37;10.95;;;2.15;;
66970;SDS011;53901;51.466;-2.588;2023-08-01T03:37:04;7.47;;;2.10;;
66970;SDS011;53901;51.466;-2.588;2023-08-01T03:39:29;10.88;;;2.15;;
66970;SDS011;53901;51.466;-2.588;2023-08-01T03:41:55;9.27;;;1.85;;
66970;SDS011;53901;51.466;-2.588;2023-08-01T03:44:20;10.88;;;2.10;;
66970;SDS011;53901;51.466;-2.588;2023-08-01T03:46:45;8.75;;;2.60;;
66970;SDS011;53901;51.466;-2.588;2023-08-01T03:49:12;8.52;;;2.00;;
66970;SDS011;53901;51.466;-2.588;2023-08-01T03:51:38;7.63;;;2.85;;
66970;SDS011;53901;51.466;-2.588;2023-08-01T03:54:03;11.88;;;1.98;;
66970;SDS011;53901;51.466;-2.588;2023-08-01T03:56:29;11.43;;;2.35;;
66970;SDS011;53901;51.466;-2.588;2023-08-01T03:58:54;6.53;;;1.58;;
66970;SDS011;53901;51.466;-2.588;2023-08-01T04:01:20;15.10;;;2.15;;
66970;SDS011;53901;51.466;-2.588;2023-08-01T04:03:45;11.57;;;2.30;;
66970;SDS011;53901;51.466;-2.588;2023-08-01T04:06:11;7.32;;;1.77;;
66970;SDS011;53901;51.466;-2.588;2023-08-01T04:08:40;7.63;;;1.83;;
66970;SDS011;53901;51.466;-2.588;2023-08-01T04:11:05;8.63;;;2.20;;
66970;SDS011;53901;51.466;-2.588;2023-08-01T04:13:31;5.95;;;1.30;;
66970;SDS011;53901;51.466;-2.588;2023-08-01T04:15:56;9.07;;;1.80;;
66970;SDS011;53901;51.466;-2.588;2023-08-01T04:18:22;12.43;;;2.25;;
66970;SDS011;53901;51.466;-2.588;2023-08-01T04:20:47;12.10;;;2.35;;
66970;SDS011;53901;51.466;-2.588;2023-08-01T04:23:12;11.13;;;1.83;;
66970;SDS011;53901;51.466;-2.588;2023-08-01T04:25:40;6.95;;;1.92;;
66970;SDS011;53901;51.466;-2.588;2023-08-01T04:28:06;11.98;;;2.25;;
66970;SDS011;53901;51.466;-2.588;2023-08-01T04:30:31;8.95;;;1.75;;
66970;SDS011;53901;51.466;-2.588;2023-08-01T04:32:58;5.20;;;1.48;;
66970;SDS011;53901;51.466;-2.588;2023-08-01T04:35:23;13.25;;;2.08;;
66970;SDS011;53901;51.466;-2.588;2023-08-01T04:37:49;7.70;;;1.88;;
66970;SDS011;53901;51.466;-2.588;2023-08-01T04:40:14;11.88;;;1.50;;
66970;SDS011;53901;51.466;-2.588;2023-08-01T04:42:39;12.25;;;1.80;;
66970;SDS011;53901;51.466;-2.588;2023-08-01T04:45:05;7.93;;;1.83;;
66970;SDS011;53901;51.466;-2.588;2023-08-01T04:47:32;9.55;;;2.38;;
66970;SDS011;53901;51.466;-2.588;2023-08-01T04:49:57;6.03;;;1.67;;
66970;SDS011;53901;51.466;-2.588;2023-08-01T04:52:23;6.97;;;1.58;;
66970;SDS011;53901;51.466;-2.588;2023-08-01T04:54:48;8.57;;;1.70;;
66970;SDS011;53901;51.466;-2.588;2023-08-01T04:57:13;9.50;;;1.73;;
66970;SDS011;53901;51.466;-2.588;2023-08-01T04:59:39;9.10;;;2.28;;
66970;SDS011;53901;51.466;-2.588;2023-08-01T05:02:04;14.30;;;2.20;;
66970;SDS011;53901;51.466;-2.588;2023-08-01T05:04:30;6.75;;;2.10;;
66970;SDS011;53901;51.466;-2.588;2023-08-01T05:06:55;7.90;;;1.60;;
66970;SDS011;53901;51.466;-2.588;2023-08-01T05:09:20;7.60;;;1.70;;
66970;SDS011;53901;51.466;-2.588;2023-08-01T05:11:46;11.10;;;1.83;;
66970;SDS011;53901;51.466;-2.588;2023-08-01T05:14:11;13.18;;;1.85;;
66970;SDS011;53901;51.466;-2.588;2023-08-01T05:16:36;9.30;;;1.90;;
66970;SDS011;53901;51.466;-2.588;2023-08-01T05:19:02;10.57;;;1.83;;
66970;SDS011;53901;51.466;-2.588;2023-08-01T05:21:27;13.27;;;2.38;;
66970;SDS011;53901;51.466;-2.588;2023-08-01T05:23:52;8.63;;;2.10;;
66970;SDS011;53901;51.466;-2.588;2023-08-01T05:26:18;13.23;;;2.65;;
66970;SDS011;53901;51.466;-2.588;2023-08-01T05:28:43;7.25;;;1.52;;
66970;SDS011;53901;51.466;-2.588;2023-08-01T05:31:08;7.70;;;1.95;;
66970;SDS011;53901;51.466;-2.588;2023-08-01T05:33:34;9.70;;;1.80;;
66970;SDS011;53901;51.466;-2.588;2023-08-01T05:35:59;6.60;;;2.05;;
66970;SDS011;53901;51.466;-2.588;2023-08-01T05:38:24;9.50;;;1.90;;
66970;SDS011;53901;51.466;-2.588;2023-08-01T05:40:50;5.75;;;1.60;;
66970;SDS011;53901;51.466;-2.588;2023-08-01T05:43:15;11.35;;;1.85;;
66970;SDS011;53901;51.466;-2.588;2023-08-01T05:45:41;11.23;;;1.67;;
66970;SDS011;53901;51.466;-2.588;2023-08-01T05:48:06;7.70;;;1.73;;
66970;SDS011;53901;51.466;-2.588;2023-08-01T05:50:32;10.73;;;2.00;;
66970;SDS011;53901;51.466;-2.588;2023-08-01T05:52:57;5.93;;;1.50;;
66970;SDS011;53901;51.466;-2.588;2023-08-01T05:55:22;7.35;;;1.65;;
66970;SDS011;53901;51.466;-2.588;2023-08-01T05:57:48;11.98;;;2.00;;
66970;SDS011;53901;51.466;-2.588;2023-08-01T06:00:17;11.70;;;1.83;;
66970;SDS011;53901;51.466;-2.588;2023-08-01T06:02:43;14.10;;;1.90;;
66970;SDS011;53901;51.466;-2.588;2023-08-01T06:05:08;12.07;;;2.17;;
66970;SDS011;53901;51.466;-2.588;2023-08-01T06:07:34;12.90;;;2.15;;
66970;SDS011;53901;51.466;-2.588;2023-08-01T06:09:59;8.65;;;1.98;;
66970;SDS011;53901;51.466;-2.588;2023-08-01T06:12:24;8.90;;;2.38;;
66970;SDS011;53901;51.466;-2.588;2023-08-01T06:14:50;9.40;;;2.25;;
66970;SDS011;53901;51.466;-2.588;2023-08-01T06:17:15;8.63;;;2.00;;
66970;SDS011;53901;51.466;-2.588;2023-08-01T06:19:41;10.45;;;2.17;;
66970;SDS011;53901;51.466;-2.588;2023-08-01T06:22:06;13.55;;;2.65;;
66970;SDS011;53901;51.466;-2.588;2023-08-01T06:24:33;9.88;;;2.80;;
66970;SDS011;53901;51.466;-2.588;2023-08-01T06:26:58;10.25;;;2.85;;
66970;SDS011;53901;51.466;-2.588;2023-08-01T06:29:24;12.88;;;3.10;;
66970;SDS011;53901;51.466;-2.588;2023-08-01T06:31:50;13.57;;;2.80;;
66970;SDS011;53901;51.466;-2.588;2023-08-01T06:34:15;16.40;;;3.58;;
66970;SDS011;53901;51.466;-2.588;2023-08-01T06:36:41;16.38;;;3.22;;
66970;SDS011;53901;51.466;-2.588;2023-08-01T06:39:06;8.10;;;3.67;;
66970;SDS011;53901;51.466;-2.588;2023-08-01T06:41:32;11.35;;;3.20;;
66970;SDS011;53901;51.466;-2.588;2023-08-01T06:43:57;14.82;;;3.15;;
66970;SDS011;53901;51.466;-2.588;2023-08-01T06:46:23;10.77;;;3.35;;
66970;SDS011;53901;51.466;-2.588;2023-08-01T06:48:48;8.90;;;3.00;;
66970;SDS011;53901;51.466;-2.588;2023-08-01T06:51:13;9.27;;;3.00;;
66970;SDS011;53901;51.466;-2.588;2023-08-01T06:53:39;7.18;;;2.90;;
66970;SDS011;53901;51.466;-2.588;2023-08-01T06:56:04;10.55;;;3.13;;
66970;SDS011;53901;51.466;-2.588;2023-08-01T06:58:29;10.85;;;2.50;;
66970;SDS011;53901;51.466;-2.588;2023-08-01T07:00:55;8.75;;;2.97;;
66970;SDS011;53901;51.466;-2.588;2023-08-01T07:03:20;12.93;;;2.67;;
66970;SDS011;53901;51.466;-2.588;2023-08-01T07:05:46;8.90;;;2.42;;
66970;SDS011;53901;51.466;-2.588;2023-08-01T07:08:11;10.15;;;2.72;;
66970;SDS011;53901;51.466;-2.588;2023-08-01T07:10:37;6.95;;;2.03;;
66970;SDS011;53901;51.466;-2.588;2023-08-01T07:13:03;6.82;;;1.95;;
66970;SDS011;53901;51.466;-2.588;2023-08-01T07:15:30;10.18;;;2.22;;
66970;SDS011;53901;51.466;-2.588;2023-08-01T07:17:56;9.52;;;2.33;;
66970;SDS011;53901;51.466;-2.588;2023-08-01T07:20:22;7.88;;;2.28;;
66970;SDS011;53901;51.466;-2.588;2023-08-01T07:22:47;10.85;;;1.55;;
66970;SDS011;53901;51.466;-2.588;2023-08-01T07:25:13;8.73;;;1.52;;
66970;SDS011;53901;51.466;-2.588;2023-08-01T07:27:38;5.97;;;1.60;;
66970;SDS011;53901;51.466;-2.588;2023-08-01T07:30:04;8.05;;;1.75;;
66970;SDS011;53901;51.466;-2.588;2023-08-01T07:32:30;4.97;;;1.85;;
66970;SDS011;53901;51.466;-2.588;2023-08-01T07:34:56;6.38;;;1.40;;
66970;SDS011;53901;51.466;-2.588;2023-08-01T07:37:21;11.05;;;2.25;;
66970;SDS011;53901;51.466;-2.588;2023-08-01T07:39:46;14.68;;;2.20;;
66970;SDS011;53901;51.466;-2.588;2023-08-01T07:42:12;11.98;;;2.13;;
66970;SDS011;53901;51.466;-2.588;2023-08-01T07:44:37;7.97;;;1.88;;
66970;SDS011;53901;51.466;-2.588;2023-08-01T07:47:03;7.38;;;1.83;;
66970;SDS011;53901;51.466;-2.588;2023-08-01T07:49:28;8.68;;;1.83;;
66970;SDS011;53901;51.466;-2.588;2023-08-01T07:51:54;7.47;;;1.55;;
66970;SDS011;53901;51.466;-2.588;2023-08-01T07:54:19;11.05;;;2.42;;
66970;SDS011;53901;51.466;-2.588;2023-08-01T07:56:45;8.13;;;1.85;;
66970;SDS011;53901;51.466;-2.588;2023-08-01T07:59:13;9.02;;;2.05;;
66970;SDS011;53901;51.466;-2.588;2023-08-01T08:01:39;5.75;;;1.55;;
66970;SDS011;53901;51.466;-2.588;2023-08-01T08:04:05;8.60;;;2.15;;
66970;SDS011;53901;51.466;-2.588;2023-08-01T08:06:30;9.40;;;1.95;;
66970;SDS011;53901;51.466;-2.588;2023-08-01T08:08:56;10.52;;;2.30;;
66970;SDS011;53901;51.466;-2.588;2023-08-01T08:11:21;5.47;;;1.50;;
66970;SDS011;53901;51.466;-2.588;2023-08-01T08:13:48;7.75;;;1.92;;
66970;SDS011;53901;51.466;-2.588;2023-08-01T08:16:13;7.95;;;2.25;;
66970;SDS011;53901;51.466;-2.588;2023-08-01T08:18:39;8.80;;;1.98;;
66970;SDS011;53901;51.466;-2.588;2023-08-01T08:21:04;6.68;;;2.05;;
66970;SDS011;53901;51.466;-2.588;2023-08-01T08:23:29;10.38;;;2.00;;
66970;SDS011;53901;51.466;-2.588;2023-08-01T08:25:55;20.20;;;2.50;;
66970;SDS011;53901;51.466;-2.588;2023-08-01T08:28:30;5.63;;;1.88;;
66970;SDS011;53901;51.466;-2.588;2023-08-01T08:30:57;10.05;;;2.13;;
66970;SDS011;53901;51.466;-2.588;2023-08-01T08:33:23;6.50;;;2.20;;
66970;SDS011;53901;51.466;-2.588;2023-08-01T08:35:48;6.93;;;1.90;;
66970;SDS011;53901;51.466;-2.588;2023-08-01T08:38:16;6.68;;;2.08;;
66970;SDS011;53901;51.466;-2.588;2023-08-01T08:40:43;8.48;;;2.10;;
66970;SDS011;53901;51.466;-2.588;2023-08-01T08:43:17;8.30;;;1.85;;
66970;SDS011;53901;51.466;-2.588;2023-08-01T08:45:43;7.85;;;1.65;;
66970;SDS011;53901;51.466;-2.588;2023-08-01T08:48:12;11.45;;;1.77;;
66970;SDS011;53901;51.466;-2.588;2023-08-01T08:50:38;5.95;;;2.22;;
66970;SDS011;53901;51.466;-2.588;2023-08-01T08:53:05;4.32;;;1.80;;
66970;SDS011;53901;51.466;-2.588;2023-08-01T08:55:37;5.82;;;1.98;;
66970;SDS011;53901;51.466;-2.588;2023-08-01T08:58:02;4.40;;;1.73;;
66970;SDS011;53901;51.466;-2.588;2023-08-01T09:00:28;14.20;;;2.30;;
66970;SDS011;53901;51.466;-2.588;2023-08-01T09:02:54;6.82;;;2.78;;
66970;SDS011;53901;51.466;-2.588;2023-08-01T09:05:20;10.32;;;2.60;;
66970;SDS011;53901;51.466;-2.588;2023-08-01T09:07:47;5.20;;;1.88;;
66970;SDS011;53901;51.466;-2.588;2023-08-01T09:10:14;8.23;;;2.30;;
66970;SDS011;53901;51.466;-2.588;2023-08-01T09:12:39;7.82;;;2.40;;
66970;SDS011;53901;51.466;-2.588;2023-08-01T09:15:05;9.40;;;2.38;;
66970;SDS011;53901;51.466;-2.588;2023-08-01T09:17:30;8.77;;;2.33;;
66970;SDS011;53901;51.466;-2.588;2023-08-01T09:20:05;5.82;;;1.90;;
66970;SDS011;53901;51.466;-2.588;2023-08-01T09:22:40;8.05;;;2.05;;
66970;SDS011;53901;51.466;-2.588;2023-08-01T09:25:09;6.28;;;1.70;;
66970;SDS011;53901;51.466;-2.588;2023-08-01T09:27:35;6.45;;;1.98;;
66970;SDS011;53901;51.466;-2.588;2023-08-01T09:30:10;8.27;;;2.20;;
66970;SDS011;53901;51.466;-2.588;2023-08-01T09:32:39;6.28;;;1.75;;
66970;SDS011;53901;51.466;-2.588;2023-08-01T09:35:04;8.27;;;1.95;;
66970;SDS011;53901;51.466;-2.588;2023-08-01T09:37:40;4.78;;;1.77;;
66970;SDS011;53901;51.466;-2.588;2023-08-01T09:40:06;6.75;;;1.85;;
66970;SDS011;53901;51.466;-2.588;2023-08-01T09:42:39;4.88;;;1.40;;
66970;SDS011;53901;51.466;-2.588;2023-08-01T09:45:06;4.82;;;1.85;;
66970;SDS011;53901;51.466;-2.588;2023-08-01T09:50:06;7.18;;;2.42;;
66970;SDS011;53901;51.466;-2.588;2023-08-01T09:52:33;5.45;;;1.85;;
66970;SDS011;53901;51.466;-2.588;2023-08-01T09:54:59;5.43;;;1.50;;
66970;SDS011;53901;51.466;-2.588;2023-08-01T09:57:26;8.15;;;1.75;;
66970;SDS011;53901;51.466;-2.588;2023-08-01T09:59:56;5.15;;;1.45;;
66970;SDS011;53901;51.466;-2.588;2023-08-01T10:02:23;8.38;;;1.85;;
66970;SDS011;53901;51.466;-2.588;2023-08-01T10:04:49;9.23;;;1.73;;
66970;SDS011;53901;51.466;-2.588;2023-08-01T10:07:17;5.70;;;1.58;;
66970;SDS011;53901;51.466;-2.588;2023-08-01T10:09:48;7.85;;;1.85;;
66970;SDS011;53901;51.466;-2.588;2023-08-01T10:12:14;7.50;;;1.55;;
66970;SDS011;53901;51.466;-2.588;2023-08-01T10:14:43;4.95;;;1.55;;
66970;SDS011;53901;51.466;-2.588;2023-08-01T10:17:08;3.92;;;1.20;;
66970;SDS011;53901;51.466;-2.588;2023-08-01T10:19:35;4.93;;;1.35;;
66970;SDS011;53901;51.466;-2.588;2023-08-01T10:22:02;5.82;;;1.40;;
66970;SDS011;53901;51.466;-2.588;2023-08-01T10:24:29;3.42;;;1.40;;
66970;SDS011;53901;51.466;-2.588;2023-08-01T10:26:55;4.10;;;1.30;;
66970;SDS011;53901;51.466;-2.588;2023-08-01T10:29:20;4.32;;;1.08;;
66970;SDS011;53901;51.466;-2.588;2023-08-01T10:31:53;7.18;;;1.75;;
66970;SDS011;53901;51.466;-2.588;2023-08-01T10:34:19;4.63;;;1.13;;
66970;SDS011;53901;51.466;-2.588;2023-08-01T10:36:56;4.43;;;1.35;;
66970;SDS011;53901;51.466;-2.588;2023-08-01T10:39:22;4.80;;;1.30;;
66970;SDS011;53901;51.466;-2.588;2023-08-01T10:41:56;4.28;;;1.50;;
66970;SDS011;53901;51.466;-2.588;2023-08-01T10:44:22;3.72;;;1.33;;
66970;SDS011;53901;51.466;-2.588;2023-08-01T10:46:52;8.90;;;1.42;;
66970;SDS011;53901;51.466;-2.588;2023-08-01T10:49:19;5.03;;;1.25;;
66970;SDS011;53901;51.466;-2.588;2023-08-01T10:51:49;6.13;;;1.15;;
66970;SDS011;53901;51.466;-2.588;2023-08-01T10:54:21;3.80;;;1.17;;
66970;SDS011;53901;51.466;-2.588;2023-08-01T10:56:48;7.68;;;1.25;;
66970;SDS011;53901;51.466;-2.588;2023-08-01T10:59:14;6.93;;;1.50;;
66970;SDS011;53901;51.466;-2.588;2023-08-01T11:01:59;4.28;;;1.02;;
66970;SDS011;53901;51.466;-2.588;2023-08-01T11:04:27;6.03;;;1.35;;
66970;SDS011;53901;51.466;-2.588;2023-08-01T11:06:53;2.47;;;1.10;;
66970;SDS011;53901;51.466;-2.588;2023-08-01T11:09:24;8.07;;;1.20;;
66970;SDS011;53901;51.466;-2.588;2023-08-01T11:11:52;6.05;;;1.13;;
66970;SDS011;53901;51.466;-2.588;2023-08-01T11:14:22;4.78;;;1.38;;
66970;SDS011;53901;51.466;-2.588;2023-08-01T11:16:48;3.63;;;0.93;;
66970;SDS011;53901;51.466;-2.588;2023-08-01T11:21:47;5.53;;;1.23;;
66970;SDS011;53901;51.466;-2.588;2023-08-01T11:24:12;5.70;;;1.73;;
66970;SDS011;53901;51.466;-2.588;2023-08-01T11:26:41;8.23;;;1.38;;
66970;SDS011;53901;51.466;-2.588;2023-08-01T11:29:10;6.05;;;1.42;;
66970;SDS011;53901;51.466;-2.588;2023-08-01T11:31:36;5.88;;;1.40;;
66970;SDS011;53901;51.466;-2.588;2023-08-01T11:34:02;6.18;;;1.05;;
66970;SDS011;53901;51.466;-2.588;2023-08-01T11:36:28;8.07;;;1.10;;
66970;SDS011;53901;51.466;-2.588;2023-08-01T11:38:58;5.80;;;1.10;;
66970;SDS011;53901;51.466;-2.588;2023-08-01T11:41:24;7.45;;;1.65;;
66970;SDS011;53901;51.466;-2.588;2023-08-01T11:43:52;7.03;;;1.45;;
66970;SDS011;53901;51.466;-2.588;2023-08-01T11:46:19;7.28;;;1.40;;
66970;SDS011;53901;51.466;-2.588;2023-08-01T11:48:45;4.80;;;1.20;;
66970;SDS011;53901;51.466;-2.588;2023-08-01T11:51:11;8.82;;;1.60;;
66970;SDS011;53901;51.466;-2.588;2023-08-01T11:53:37;9.43;;;1.73;;
66970;SDS011;53901;51.466;-2.588;2023-08-01T11:56:04;6.82;;;1.55;;
66970;SDS011;53901;51.466;-2.588;2023-08-01T11:58:30;4.80;;;1.08;;
66970;SDS011;53901;51.466;-2.588;2023-08-01T12:01:06;6.68;;;1.70;;
66970;SDS011;53901;51.466;-2.588;2023-08-01T12:03:46;3.60;;;1.27;;
66970;SDS011;53901;51.466;-2.588;2023-08-01T12:06:16;9.80;;;1.52;;
66970;SDS011;53901;51.466;-2.588;2023-08-01T12:08:43;3.78;;;1.10;;
66970;SDS011;53901;51.466;-2.588;2023-08-01T12:11:25;3.28;;;1.23;;
66970;SDS011;53901;51.466;-2.588;2023-08-01T12:14:00;3.83;;;1.17;;
66970;SDS011;53901;51.466;-2.588;2023-08-01T12:16:28;3.88;;;1.17;;
66970;SDS011;53901;51.466;-2.588;2023-08-01T12:18:54;3.63;;;1.10;;
66970;SDS011;53901;51.466;-2.588;2023-08-01T12:21:19;4.30;;;1.00;;
66970;SDS011;53901;51.466;-2.588;2023-08-01T12:23:44;5.63;;;1.10;;
66970;SDS011;53901;51.466;-2.588;2023-08-01T12:26:10;6.05;;;0.98;;
66970;SDS011;53901;51.466;-2.588;2023-08-01T12:28:35;4.85;;;1.00;;
66970;SDS011;53901;51.466;-2.588;2023-08-01T12:31:01;4.43;;;0.98;;
66970;SDS011;53901;51.466;-2.588;2023-08-01T12:33:27;3.10;;;1.10;;
66970;SDS011;53901;51.466;-2.588;2023-08-01T12:35:52;5.55;;;1.20;;
66970;SDS011;53901;51.466;-2.588;2023-08-01T12:38:17;4.80;;;1.27;;
66970;SDS011;53901;51.466;-2.588;2023-08-01T12:40:43;8.65;;;1.70;;
66970;SDS011;53901;51.466;-2.588;2023-08-01T12:43:08;4.65;;;1.00;;
66970;SDS011;53901;51.466;-2.588;2023-08-01T12:45:33;4.18;;;1.10;;
66970;SDS011;53901;51.466;-2.588;2023-08-01T12:47:59;6.18;;;1.25;;
66970;SDS011;53901;51.466;-2.588;2023-08-01T12:50:24;4.03;;;0.90;;
66970;SDS011;53901;51.466;-2.588;2023-08-01T12:52:50;6.50;;;0.90;;
66970;SDS011;53901;51.466;-2.588;2023-08-01T12:55:15;3.13;;;0.95;;
66970;SDS011;53901;51.466;-2.588;2023-08-01T12:57:40;3.13;;;1.30;;
66970;SDS011;53901;51.466;-2.588;2023-08-01T13:00:13;6.60;;;1.20;;
66970;SDS011;53901;51.466;-2.588;2023-08-01T13:02:42;6.65;;;1.40;;
66970;SDS011;53901;51.466;-2.588;2023-08-01T13:05:07;7.03;;;1.52;;
66970;SDS011;53901;51.466;-2.588;2023-08-01T13:07:33;4.90;;;1.30;;
66970;SDS011;53901;51.466;-2.588;2023-08-01T13:09:59;5.18;;;1.20;;
66970;SDS011;53901;51.466;-2.588;2023-08-01T13:12:25;4.53;;;1.10;;
66970;SDS011;53901;51.466;-2.588;2023-08-01T13:14:50;6.78;;;1.55;;
66970;SDS011;53901;51.466;-2.588;2023-08-01T13:17:15;5.28;;;1.40;;
66970;SDS011;53901;51.466;-2.588;2023-08-01T13:19:41;4.28;;;1.10;;
66970;SDS011;53901;51.466;-2.588;2023-08-01T13:22:06;5.70;;;1.23;;
66970;SDS011;53901;51.466;-2.588;2023-08-01T13:24:32;4.28;;;1.15;;
66970;SDS011;53901;51.466;-2.588;2023-08-01T13:26:57;6.55;;;1.10;;
66970;SDS011;53901;51.466;-2.588;2023-08-01T13:29:23;4.28;;;0.90;;
66970;SDS011;53901;51.466;-2.588;2023-08-01T13:31:48;4.32;;;1.00;;
66970;SDS011;53901;51.466;-2.588;2023-08-01T13:34:14;4.72;;;1.00;;
66970;SDS011;53901;51.466;-2.588;2023-08-01T13:36:39;5.07;;;1.05;;
66970;SDS011;53901;51.466;-2.588;2023-08-01T13:39:04;6.78;;;1.55;;
66970;SDS011;53901;51.466;-2.588;2023-08-01T13:41:31;4.55;;;1.10;;
66970;SDS011;53901;51.466;-2.588;2023-08-01T13:43:57;9.32;;;1.65;;
66970;SDS011;53901;51.466;-2.588;2023-08-01T13:46:22;4.60;;;1.02;;
66970;SDS011;53901;51.466;-2.588;2023-08-01T13:48:47;5.82;;;1.63;;
66970;SDS011;53901;51.466;-2.588;2023-08-01T13:51:13;4.72;;;1.10;;
66970;SDS011;53901;51.466;-2.588;2023-08-01T13:53:39;6.70;;;0.93;;
66970;SDS011;53901;51.466;-2.588;2023-08-01T13:56:07;2.95;;;0.80;;
66970;SDS011;53901;51.466;-2.588;2023-08-01T13:58:39;2.90;;;1.10;;
66970;SDS011;53901;51.466;-2.588;2023-08-01T14:01:05;8.20;;;1.30;;
66970;SDS011;53901;51.466;-2.588;2023-08-01T14:03:34;7.00;;;1.10;;
66970;SDS011;53901;51.466;-2.588;2023-08-01T14:06:06;5.40;;;1.30;;
66970;SDS011;53901;51.466;-2.588;2023-08-01T14:08:33;4.28;;;2.00;;
66970;SDS011;53901;51.466;-2.588;2023-08-01T14:10:58;4.93;;;1.00;;
66970;SDS011;53901;51.466;-2.588;2023-08-01T14:13:24;2.95;;;0.80;;
66970;SDS011;53901;51.466;-2.588;2023-08-01T14:15:49;3.17;;;1.10;;
66970;SDS011;53901;51.466;-2.588;2023-08-01T14:18:14;4.78;;;0.90;;
66970;SDS011;53901;51.466;-2.588;2023-08-01T14:20:40;2.53;;;0.88;;
66970;SDS011;53901;51.466;-2.588;2023-08-01T14:23:05;4.47;;;1.40;;
66970;SDS011;53901;51.466;-2.588;2023-08-01T14:25:31;5.30;;;1.13;;
66970;SDS011;53901;51.466;-2.588;2023-08-01T14:27:56;5.22;;;1.15;;
66970;SDS011;53901;51.466;-2.588;2023-08-01T14:30:21;8.07;;;1.30;;
66970;SDS011;53901;51.466;-2.588;2023-08-01T14:32:47;5.53;;;1.40;;